<?xml version="1.0" encoding="UTF-8" standalone="no" ?>
<gpx xmlns="http://www.topografix.com/GPX/1/1" xmlns:xsi="http://www.w3.org/2001/XMLSchema-instance" xsi:schemaLocation="http://www.topografix.com/GPX/1/1 http://www.topografix.com/GPX/1/1/gpx.xsd" version="1.1" creator="VisuGPX - https://www.visugpx.com">
  <metadata>
    <name>Stambruges - Ecacheries</name>
    <desc><![CDATA[Randonnée forestière]]></desc>
  </metadata>
  <trk>
    <name><![CDATA[12651516-Stambruges - Ecacheries]]></name>
    <trkseg>
      <trkpt lat="50.50863" lon="3.71793">
        <ele>61</ele>
        <time>2021-03-10T08:21:50Z</time>
      </trkpt>
      <trkpt lat="50.50871" lon="3.71839">
        <ele>61</ele>
        <time>2021-03-10T08:22:14Z</time>
      </trkpt>
      <trkpt lat="50.50879" lon="3.7189">
        <ele>61</ele>
        <time>2021-03-10T08:22:41Z</time>
      </trkpt>
      <trkpt lat="50.5088" lon="3.71899">
        <ele>61</ele>
        <time>2021-03-10T08:22:46Z</time>
      </trkpt>
      <trkpt lat="50.50881" lon="3.71906">
        <ele>61</ele>
        <time>2021-03-10T08:22:49Z</time>
      </trkpt>
      <trkpt lat="50.50881" lon="3.71912">
        <ele>61</ele>
        <time>2021-03-10T08:22:52Z</time>
      </trkpt>
      <trkpt lat="50.50882" lon="3.71918">
        <ele>61</ele>
        <time>2021-03-10T08:22:56Z</time>
      </trkpt>
      <trkpt lat="50.50882" lon="3.71931">
        <ele>61</ele>
        <time>2021-03-10T08:23:02Z</time>
      </trkpt>
      <trkpt lat="50.50884" lon="3.71941">
        <ele>61</ele>
        <time>2021-03-10T08:23:08Z</time>
      </trkpt>
      <trkpt lat="50.50917" lon="3.71927">
        <ele>60</ele>
        <time>2021-03-10T08:23:35Z</time>
      </trkpt>
      <trkpt lat="50.50923" lon="3.71973">
        <ele>61</ele>
        <time>2021-03-10T08:23:59Z</time>
      </trkpt>
      <trkpt lat="50.50962" lon="3.71996">
        <ele>60</ele>
        <time>2021-03-10T08:24:32Z</time>
      </trkpt>
      <trkpt lat="50.51005" lon="3.72024">
        <ele>60</ele>
        <time>2021-03-10T08:25:09Z</time>
      </trkpt>
      <trkpt lat="50.51016" lon="3.72045">
        <ele>59</ele>
        <time>2021-03-10T08:25:23Z</time>
      </trkpt>
      <trkpt lat="50.5105" lon="3.72127">
        <ele>58</ele>
        <time>2021-03-10T08:26:13Z</time>
      </trkpt>
      <trkpt lat="50.51081" lon="3.72107">
        <ele>59</ele>
        <time>2021-03-10T08:26:40Z</time>
      </trkpt>
      <trkpt lat="50.51129" lon="3.72092">
        <ele>59</ele>
        <time>2021-03-10T08:27:19Z</time>
      </trkpt>
      <trkpt lat="50.51135" lon="3.72066">
        <ele>59</ele>
        <time>2021-03-10T08:27:33Z</time>
      </trkpt>
      <trkpt lat="50.51194" lon="3.72029">
        <ele>58</ele>
        <time>2021-03-10T08:28:24Z</time>
      </trkpt>
      <trkpt lat="50.51182" lon="3.71978">
        <ele>58</ele>
        <time>2021-03-10T08:28:52Z</time>
      </trkpt>
      <trkpt lat="50.5119" lon="3.71941">
        <ele>58</ele>
        <time>2021-03-10T08:29:12Z</time>
      </trkpt>
      <trkpt lat="50.51194" lon="3.71936">
        <ele>58</ele>
        <time>2021-03-10T08:29:16Z</time>
      </trkpt>
      <trkpt lat="50.51204" lon="3.71938">
        <ele>58</ele>
        <time>2021-03-10T08:29:24Z</time>
      </trkpt>
      <trkpt lat="50.5124" lon="3.7193">
        <ele>57</ele>
        <time>2021-03-10T08:29:53Z</time>
      </trkpt>
      <trkpt lat="50.5141" lon="3.71898">
        <ele>59</ele>
        <time>2021-03-10T08:32:10Z</time>
      </trkpt>
      <trkpt lat="50.51572" lon="3.71885">
        <ele>59</ele>
        <time>2021-03-10T08:34:20Z</time>
      </trkpt>
      <trkpt lat="50.51686" lon="3.71894">
        <ele>63</ele>
        <time>2021-03-10T08:35:51Z</time>
      </trkpt>
      <trkpt lat="50.51758" lon="3.71944">
        <ele>65</ele>
        <time>2021-03-10T08:36:54Z</time>
      </trkpt>
      <trkpt lat="50.51794" lon="3.72">
        <ele>65</ele>
        <time>2021-03-10T08:37:35Z</time>
      </trkpt>
      <trkpt lat="50.5184" lon="3.72072">
        <ele>63</ele>
        <time>2021-03-10T08:38:27Z</time>
      </trkpt>
      <trkpt lat="50.51864" lon="3.72097">
        <ele>62</ele>
        <time>2021-03-10T08:38:50Z</time>
      </trkpt>
      <trkpt lat="50.51892" lon="3.7211">
        <ele>62</ele>
        <time>2021-03-10T08:39:13Z</time>
      </trkpt>
      <trkpt lat="50.51915" lon="3.7211">
        <ele>62</ele>
        <time>2021-03-10T08:39:32Z</time>
      </trkpt>
      <trkpt lat="50.51938" lon="3.72111">
        <ele>64</ele>
        <time>2021-03-10T08:39:50Z</time>
      </trkpt>
      <trkpt lat="50.51993" lon="3.72113">
        <ele>68</ele>
        <time>2021-03-10T08:40:34Z</time>
      </trkpt>
      <trkpt lat="50.52014" lon="3.72129">
        <ele>69</ele>
        <time>2021-03-10T08:40:53Z</time>
      </trkpt>
      <trkpt lat="50.52089" lon="3.72225">
        <ele>71</ele>
        <time>2021-03-10T08:42:10Z</time>
      </trkpt>
      <trkpt lat="50.52438" lon="3.71737">
        <ele>69</ele>
        <time>2021-03-10T08:48:24Z</time>
      </trkpt>
      <trkpt lat="50.52586" lon="3.71531">
        <ele>67</ele>
        <time>2021-03-10T08:51:02Z</time>
      </trkpt>
      <trkpt lat="50.52979" lon="3.7099">
        <ele>75</ele>
        <time>2021-03-10T08:58:00Z</time>
      </trkpt>
      <trkpt lat="50.53096" lon="3.7084">
        <ele>74</ele>
        <time>2021-03-10T09:00:01Z</time>
      </trkpt>
      <trkpt lat="50.53751" lon="3.71551">
        <ele>59</ele>
        <time>2021-03-10T09:10:38Z</time>
      </trkpt>
      <trkpt lat="50.53794" lon="3.71595">
        <ele>57</ele>
        <time>2021-03-10T09:11:20Z</time>
      </trkpt>
      <trkpt lat="50.53805" lon="3.71628">
        <ele>57</ele>
        <time>2021-03-10T09:11:39Z</time>
      </trkpt>
      <trkpt lat="50.53804" lon="3.71673">
        <ele>57</ele>
        <time>2021-03-10T09:12:01Z</time>
      </trkpt>
      <trkpt lat="50.53824" lon="3.71722">
        <ele>55</ele>
        <time>2021-03-10T09:12:31Z</time>
      </trkpt>
      <trkpt lat="50.53857" lon="3.7175">
        <ele>54</ele>
        <time>2021-03-10T09:13:01Z</time>
      </trkpt>
      <trkpt lat="50.53889" lon="3.71757">
        <ele>55</ele>
        <time>2021-03-10T09:13:27Z</time>
      </trkpt>
      <trkpt lat="50.53921" lon="3.71741">
        <ele>55</ele>
        <time>2021-03-10T09:13:54Z</time>
      </trkpt>
      <trkpt lat="50.53941" lon="3.71749">
        <ele>57</ele>
        <time>2021-03-10T09:14:10Z</time>
      </trkpt>
      <trkpt lat="50.53962" lon="3.71774">
        <ele>59</ele>
        <time>2021-03-10T09:14:31Z</time>
      </trkpt>
      <trkpt lat="50.53974" lon="3.71791">
        <ele>60</ele>
        <time>2021-03-10T09:14:44Z</time>
      </trkpt>
      <trkpt lat="50.53613" lon="3.72471">
        <ele>59</ele>
        <time>2021-03-10T09:22:15Z</time>
      </trkpt>
      <trkpt lat="50.53351" lon="3.72969">
        <ele>58</ele>
        <time>2021-03-10T09:27:44Z</time>
      </trkpt>
      <trkpt lat="50.53224" lon="3.73222">
        <ele>58</ele>
        <time>2021-03-10T09:30:28Z</time>
      </trkpt>
      <trkpt lat="50.53123" lon="3.73402">
        <ele>59</ele>
        <time>2021-03-10T09:32:31Z</time>
      </trkpt>
      <trkpt lat="50.53115" lon="3.73421">
        <ele>59</ele>
        <time>2021-03-10T09:32:42Z</time>
      </trkpt>
      <trkpt lat="50.53063" lon="3.73522">
        <ele>60</ele>
        <time>2021-03-10T09:33:48Z</time>
      </trkpt>
      <trkpt lat="50.52922" lon="3.73497">
        <ele>61</ele>
        <time>2021-03-10T09:35:42Z</time>
      </trkpt>
      <trkpt lat="50.52772" lon="3.73471">
        <ele>61</ele>
        <time>2021-03-10T09:37:43Z</time>
      </trkpt>
      <trkpt lat="50.52078" lon="3.73351">
        <ele>75</ele>
        <time>2021-03-10T09:47:02Z</time>
      </trkpt>
      <trkpt lat="50.51358" lon="3.73241">
        <ele>76</ele>
        <time>2021-03-10T09:56:41Z</time>
      </trkpt>
      <trkpt lat="50.51022" lon="3.73193">
        <ele>78</ele>
        <time>2021-03-10T10:01:11Z</time>
      </trkpt>
      <trkpt lat="50.50902" lon="3.73175">
        <ele>82</ele>
        <time>2021-03-10T10:02:48Z</time>
      </trkpt>
      <trkpt lat="50.50619" lon="3.73135">
        <ele>84</ele>
        <time>2021-03-10T10:06:35Z</time>
      </trkpt>
      <trkpt lat="50.50383" lon="3.72795">
        <ele>87</ele>
        <time>2021-03-10T10:10:51Z</time>
      </trkpt>
      <trkpt lat="50.50635" lon="3.72517">
        <ele>62</ele>
        <time>2021-03-10T10:14:58Z</time>
      </trkpt>
      <trkpt lat="50.50667" lon="3.72538">
        <ele>63</ele>
        <time>2021-03-10T10:15:26Z</time>
      </trkpt>
      <trkpt lat="50.5068" lon="3.72531">
        <ele>62</ele>
        <time>2021-03-10T10:15:37Z</time>
      </trkpt>
      <trkpt lat="50.50716" lon="3.72415">
        <ele>60</ele>
        <time>2021-03-10T10:16:42Z</time>
      </trkpt>
      <trkpt lat="50.50737" lon="3.72356">
        <ele>61</ele>
        <time>2021-03-10T10:17:17Z</time>
      </trkpt>
      <trkpt lat="50.50814" lon="3.72349">
        <ele>60</ele>
        <time>2021-03-10T10:18:19Z</time>
      </trkpt>
      <trkpt lat="50.5082" lon="3.72282">
        <ele>60</ele>
        <time>2021-03-10T10:18:53Z</time>
      </trkpt>
      <trkpt lat="50.50823" lon="3.72267">
        <ele>59</ele>
        <time>2021-03-10T10:19:01Z</time>
      </trkpt>
      <trkpt lat="50.50844" lon="3.72262">
        <ele>59</ele>
        <time>2021-03-10T10:19:18Z</time>
      </trkpt>
      <trkpt lat="50.5086" lon="3.72253">
        <ele>59</ele>
        <time>2021-03-10T10:19:32Z</time>
      </trkpt>
      <trkpt lat="50.50871" lon="3.72238">
        <ele>59</ele>
        <time>2021-03-10T10:19:43Z</time>
      </trkpt>
      <trkpt lat="50.50873" lon="3.72214">
        <ele>59</ele>
        <time>2021-03-10T10:19:56Z</time>
      </trkpt>
      <trkpt lat="50.5086" lon="3.72154">
        <ele>60</ele>
        <time>2021-03-10T10:20:28Z</time>
      </trkpt>
      <trkpt lat="50.5087" lon="3.72124">
        <ele>60</ele>
        <time>2021-03-10T10:20:45Z</time>
      </trkpt>
      <trkpt lat="50.50868" lon="3.72039">
        <ele>61</ele>
        <time>2021-03-10T10:21:28Z</time>
      </trkpt>
      <trkpt lat="50.50872" lon="3.71979">
        <ele>61</ele>
        <time>2021-03-10T10:21:59Z</time>
      </trkpt>
      <trkpt lat="50.50882" lon="3.71945">
        <ele>61</ele>
        <time>2021-03-10T10:22:18Z</time>
      </trkpt>
      <trkpt lat="50.50878" lon="3.71892">
        <ele>61</ele>
        <time>2021-03-10T10:22:45Z</time>
      </trkpt>
      <trkpt lat="50.5087" lon="3.71844">
        <ele>61</ele>
        <time>2021-03-10T10:23:11Z</time>
      </trkpt>
      <trkpt lat="50.50862" lon="3.71795">
        <ele>61</ele>
        <time>2021-03-10T10:23:36Z</time>
      </trkpt>
    </trkseg>
  </trk>
</gpx>